Time;durP1;ratioP1;P1;durP2;ratioP2;P2;SDS_P1;SDS_P2;PMS_P1;PMS_P2;Temp;Humidity;BMP_temperature;BMP_pressure;BME280_temperature;BME280_humidity;BME280_pressure;Samples;Min_cycle;Max_cycle;Signal;HPM_P1;HPM_P2
2023/06/18 00:00:42;;;;;;;11.37;9.73;;;;;;;16.38;100.00;100076.64;1455494;89;21597;-80
2023/06/18 00:03:09;;;;;;;9.83;8.93;;;;;;;16.31;100.00;100073.90;1455768;89;22336;-79
2023/06/18 00:05:36;;;;;;;11.60;10.40;;;;;;;16.33;100.00;100072.39;1448776;89;21419;-79
2023/06/18 00:08:05;;;;;;;14.23;8.77;;;;;;;16.32;100.00;100079.58;1436529;89;21501;-81
2023/06/18 00:10:32;;;;;;;13.37;9.00;;;;;;;16.24;100.00;100080.53;1464531;89;21506;-80
2023/06/18 00:13:00;;;;;;;13.73;9.43;;;;;;;16.18;100.00;100081.31;1459017;89;21569;-80
2023/06/18 00:15:27;;;;;;;10.40;9.13;;;;;;;16.17;100.00;100084.16;1462097;89;21552;-79
2023/06/18 00:17:55;;;;;;;9.03;8.13;;;;;;;16.17;100.00;100087.67;1439866;89;21471;-80
2023/06/18 00:20:23;;;;;;;10.50;8.73;;;;;;;16.23;100.00;100090.91;1460654;89;21517;-79
2023/06/18 00:22:53;;;;;;;10.17;9.17;;;;;;;16.30;100.00;100092.80;1463066;89;21456;-81
2023/06/18 00:25:20;;;;;;;10.80;9.80;;;;;;;16.33;100.00;100098.58;1457127;89;21516;-79
2023/06/18 00:27:47;;;;;;;10.60;9.50;;;;;;;16.36;100.00;100097.36;1460761;89;22346;-81
2023/06/18 00:30:14;;;;;;;14.70;9.67;;;;;;;16.34;100.00;100100.73;1463819;89;21552;-80
2023/06/18 00:32:43;;;;;;;11.50;10.30;;;;;;;16.32;100.00;100096.12;1457264;89;21553;-80
2023/06/18 00:35:15;;;;;;;14.40;9.80;;;;;;;16.30;100.00;100100.30;1458552;89;21632;-80
2023/06/18 00:37:45;;;;;;;13.43;10.50;;;;;;;16.30;100.00;100098.14;1463251;89;21619;-80
2023/06/18 00:40:13;;;;;;;14.73;10.23;;;;;;;16.29;100.00;100093.83;1457148;89;22492;-80
2023/06/18 00:42:42;;;;;;;15.43;9.43;;;;;;;16.29;100.00;100095.17;1437384;89;21656;-80
2023/06/18 00:45:12;;;;;;;13.40;10.87;;;;;;;16.27;100.00;100086.52;1456750;89;21545;-80
2023/06/18 00:47:42;;;;;;;13.62;12.37;;;;;;;16.15;100.00;100088.37;1468179;89;21464;-80
2023/06/18 00:50:14;;;;;;;15.68;10.93;;;;;;;16.15;100.00;100088.37;1451999;89;21419;-80
2023/06/18 00:52:44;;;;;;;10.97;9.87;;;;;;;16.11;100.00;100093.78;1440452;89;21485;-80
2023/06/18 00:55:12;;;;;;;11.77;10.57;;;;;;;16.10;100.00;100094.78;1459727;89;21598;-80
2023/06/18 00:57:41;;;;;;;12.37;11.03;;;;;;;16.09;100.00;100091.81;1455022;89;22396;-79
2023/06/18 01:00:28;;;;;;;12.67;11.47;;;;;;;16.08;100.00;100096.81;1456240;89;22359;-80
2023/06/18 01:02:57;;;;;;;13.43;11.00;;;;;;;16.07;100.00;100092.50;1465308;89;21516;-81
2023/06/18 01:05:24;;;;;;;11.50;10.27;;;;;;;16.01;100.00;100094.09;1430406;91;21437;-81
2023/06/18 01:07:53;;;;;;;13.70;11.30;;;;;;;15.99;100.00;100092.63;1454074;89;21382;-80
2023/06/18 01:10:20;;;;;;;13.00;11.67;;;;;;;15.98;100.00;100094.47;1460152;89;21455;-81
2023/06/18 01:12:48;;;;;;;15.07;11.47;;;;;;;16.03;100.00;100099.25;1432201;89;22367;-81
2023/06/18 01:15:18;;;;;;;12.30;10.87;;;;;;;16.00;100.00;100090.30;1432778;89;21471;-81
2023/06/18 01:17:48;;;;;;;14.73;10.72;;;;;;;15.97;100.00;100086.67;1448540;89;21523;-78
2023/06/18 01:20:18;;;;;;;12.25;10.90;;;;;;;15.96;100.00;100089.00;1456951;89;21464;-78
2023/06/18 01:23:02;;;;;;;11.10;10.00;;;;;;;15.94;100.00;100089.69;1457982;89;22394;-78
2023/06/18 01:25:32;;;;;;;12.10;10.90;;;;;;;15.90;100.00;100089.77;1454622;89;21712;-80
2023/06/18 01:28:01;;;;;;;;;;;;;;;15.87;100.00;100094.16;1470118;89;21464;-79
2023/06/18 01:30:29;;;;;;;10.50;9.50;;;;;;;15.86;100.00;100096.52;1451713;89;20241;-80
2023/06/18 01:32:56;;;;;;;14.67;10.50;;;;;;;15.83;100.00;100095.05;1437146;89;21492;-80
2023/06/18 01:35:24;;;;;;;12.73;10.23;;;;;;;15.81;100.00;100089.06;1463258;89;22322;-80
2023/06/18 01:38:24;;;;;;;11.80;10.63;;;;;;;15.78;100.00;100090.78;1466957;89;21471;-80
2023/06/18 01:41:06;;;;;;;10.80;9.80;;;;;;;15.74;100.00;100090.34;1454251;89;21516;-80
2023/06/18 01:43:45;;;;;;;13.30;10.23;;;;;;;15.70;100.00;100089.56;1451290;89;21515;-80
2023/06/18 01:46:16;;;;;;;11.80;10.60;;;;;;;15.68;100.00;100092.44;1462427;89;22234;-80
2023/06/18 01:48:48;;;;;;;10.70;9.63;;;;;;;15.63;100.00;100090.80;1453879;89;22263;-80
2023/06/18 01:51:20;;;;;;;13.13;9.10;;;;;;;15.61;100.00;100094.67;1459885;89;21615;-79
2023/06/18 01:53:50;;;;;;;18.93;10.57;;;;;;;15.54;100.00;100087.94;1457457;89;21419;-79
2023/06/18 01:56:18;;;;;;;11.60;10.50;;;;;;;15.50;100.00;100083.47;1455486;89;22315;-80
2023/06/18 01:58:46;;;;;;;10.77;9.77;;;;;;;15.43;100.00;100075.09;1427000;89;21685;-81
2023/06/18 02:01:13;;;;;;;14.83;10.30;;;;;;;15.44;100.00;100078.06;1463664;89;22373;-81
2023/06/18 02:03:41;;;;;;;16.07;10.17;;;;;;;15.42;100.00;100073.42;1456016;89;21678;-80
2023/06/18 02:06:09;;;;;;;10.47;9.37;;;;;;;15.40;100.00;100077.63;1442254;89;22432;-81
2023/06/18 02:08:36;;;;;;;17.07;10.13;;;;;;;15.40;100.00;100077.63;1463558;89;21486;-80
2023/06/18 02:11:03;;;;;;;10.37;9.03;;;;;;;15.45;100.00;100086.38;1459605;89;22403;-80
2023/06/18 02:13:30;;;;;;;11.20;10.13;;;;;;;15.43;100.00;100082.58;1431387;91;21585;-79
2023/06/18 02:15:57;;;;;;;15.10;10.23;;;;;;;15.39;100.00;100083.95;1457211;89;21411;-79
2023/06/18 02:18:25;;;;;;;9.97;8.97;;;;;;;15.30;100.00;100087.23;1454557;89;21670;-79
2023/06/18 02:20:52;;;;;;;11.80;10.53;;;;;;;15.22;100.00;100092.70;1459658;89;21413;-80
2023/06/18 02:23:19;;;;;;;13.23;10.70;;;;;;;15.19;100.00;100102.40;1461412;89;22477;-80
2023/06/18 02:25:47;;;;;;;16.40;9.93;;;;;;;15.14;100.00;100098.13;1462136;89;21420;-80
2023/06/18 02:28:15;;;;;;;11.33;9.53;;;;;;;15.10;100.00;100100.81;1457271;89;22028;-79
2023/06/18 02:30:43;;;;;;;14.30;9.23;;;;;;;15.09;100.00;100103.99;1450791;89;21442;-79
2023/06/18 02:33:11;;;;;;;10.90;9.17;;;;;;;15.09;100.00;100104.50;1456983;89;21531;-79
2023/06/18 02:35:39;;;;;;;19.37;11.03;;;;;;;15.05;100.00;100103.23;1434351;89;21478;-80
2023/06/18 02:38:06;;;;;;;16.70;9.83;;;;;;;14.96;100.00;100105.17;1458359;89;21605;-79
2023/06/18 02:40:34;;;;;;;11.50;10.40;;;;;;;14.89;100.00;100106.38;1452760;89;22360;-80
2023/06/18 02:43:05;;;;;;;11.23;9.20;;;;;;;14.87;100.00;100109.77;1454732;90;21612;-79
2023/06/18 02:45:31;;;;;;;12.07;10.30;;;;;;;14.88;100.00;100110.07;1451760;90;22411;-79
2023/06/18 02:47:59;;;;;;;15.57;10.20;;;;;;;14.86;100.00;100116.08;1455153;90;22489;-79
2023/06/18 02:50:26;;;;;;;13.33;10.10;;;;;;;14.81;100.00;100117.12;1454498;90;21501;-79
2023/06/18 02:52:55;;;;;;;13.27;11.00;;;;;;;14.77;100.00;100119.84;1449768;90;21472;-81
2023/06/18 02:55:23;;;;;;;11.20;8.77;;;;;;;14.76;100.00;100117.34;1451747;90;21463;-80
2023/06/18 02:57:50;;;;;;;11.37;10.17;;;;;;;14.76;100.00;100118.20;1451087;90;21686;-81
2023/06/18 03:00:19;;;;;;;20.70;9.43;;;;;;;14.79;100.00;100119.17;1410479;91;21415;-81
2023/06/18 03:02:47;;;;;;;13.27;9.53;;;;;;;14.80;100.00;100119.48;1454382;90;21426;-81
2023/06/18 03:05:14;;;;;;;13.13;9.53;;;;;;;14.81;100.00;100118.97;1449514;90;21523;-78
2023/06/18 03:07:41;;;;;;;10.40;9.27;;;;;;;14.83;100.00;100130.28;1440099;90;21648;-79
2023/06/18 03:10:09;;;;;;;12.13;9.17;;;;;;;14.85;100.00;100126.42;1451884;90;21538;-79
2023/06/18 03:12:37;;;;;;;10.90;9.23;;;;;;;14.85;100.00;100131.75;1448404;90;21450;-79
2023/06/18 03:15:07;;;;;;;11.50;9.67;;;;;;;14.85;100.00;100133.09;1452485;90;22408;-79
2023/06/18 03:17:35;;;;;;;11.88;9.90;;;;;;;14.86;100.00;100137.91;1450143;90;21471;-79
2023/06/18 03:20:03;;;;;;;13.57;9.03;;;;;;;14.85;100.00;100133.09;1455298;90;21450;-79
2023/06/18 03:22:30;;;;;;;11.77;9.03;;;;;;;14.87;100.00;100139.06;1456247;90;21419;-78
2023/06/18 03:25:00;;;;;;;11.60;10.00;;;;;;;14.91;100.00;100142.70;1449098;90;22346;-79
2023/06/18 03:27:27;;;;;;;10.93;9.63;;;;;;;14.94;100.00;100141.00;1453357;90;22373;-79
2023/06/18 03:29:55;;;;;;;11.97;10.20;;;;;;;14.98;100.00;100140.43;1444083;90;21635;-79
2023/06/18 03:32:23;;;;;;;14.33;10.20;;;;;;;15.03;100.00;100139.89;1456773;90;21390;-79
2023/06/18 03:34:51;;;;;;;11.97;9.43;;;;;;;15.04;100.00;100142.36;1452666;90;21508;-79
2023/06/18 03:37:18;;;;;;;16.67;10.57;;;;;;;15.06;100.00;100142.19;1456799;90;22470;-82
2023/06/18 03:39:45;;;;;;;14.47;10.23;;;;;;;15.08;100.00;100142.84;1450781;89;21578;-81
2023/06/18 03:42:13;;;;;;;13.20;10.33;;;;;;;15.11;100.00;100143.80;1437411;90;21423;-81
2023/06/18 03:44:40;;;;;;;15.10;11.67;;;;;;;15.15;100.00;100141.08;1432530;90;21459;-81
2023/06/18 03:47:08;;;;;;;14.83;11.57;;;;;;;15.20;100.00;100141.36;1431548;90;21452;-82
2023/06/18 03:49:35;;;;;;;18.37;13.70;;;;;;;15.26;100.00;100141.95;1437571;90;21408;-79
2023/06/18 03:52:02;;;;;;;14.13;12.57;;;;;;;15.32;100.00;100142.54;1430303;90;21451;-80
2023/06/18 03:54:31;;;;;;;18.17;14.43;;;;;;;15.39;100.00;100147.12;1435723;90;22464;-79
2023/06/18 03:57:01;;;;;;;14.73;13.20;;;;;;;15.47;100.00;100148.36;1429619;91;21593;-80
2023/06/18 03:59:51;;;;;;;15.40;13.80;;;;;;;15.53;100.00;100144.95;1508769;86;21697;-82
2023/06/18 04:02:17;;;;;;;16.80;15.00;;;;;;;15.61;100.00;100142.17;1506738;86;21528;-81
2023/06/18 04:04:45;;;;;;;17.33;14.53;;;;;;;15.66;100.00;100145.11;1503760;86;21491;-82
2023/06/18 04:07:13;;;;;;;26.10;16.50;;;;;;;15.74;100.00;100151.71;1503460;85;21643;-81
2023/06/18 04:09:41;;;;;;;21.40;16.20;;;;;;;15.85;100.00;100154.88;1503243;85;22416;-78
2023/06/18 04:12:09;;;;;;;20.77;18.57;;;;;;;15.93;100.00;100148.92;1498472;85;21491;-80
2023/06/18 04:14:36;;;;;;;21.33;16.33;;;;;;;16.03;100.00;100155.30;1499570;86;21583;-79
2023/06/18 04:17:04;;;;;;;18.03;16.13;;;;;;;16.14;100.00;100153.47;1505925;86;22320;-79
2023/06/18 04:19:31;;;;;;;17.87;15.97;;;;;;;16.26;100.00;100158.30;1509835;86;21579;-79
2023/06/18 04:21:58;;;;;;;17.60;15.73;;;;;;;16.34;100.00;100162.16;1511692;86;21462;-79
2023/06/18 04:24:26;;;;;;;18.37;16.43;;;;;;;16.40;100.00;100160.90;1505555;86;21513;-79
2023/06/18 04:26:53;;;;;;;17.70;16.00;;;;;;;16.47;100.00;100164.95;1510961;86;21506;-79
2023/06/18 04:29:20;;;;;;;18.53;16.60;;;;;;;16.47;100.00;100167.62;1476554;87;21480;-79
2023/06/18 04:31:47;;;;;;;21.23;17.60;;;;;;;16.51;100.00;100171.55;1513773;86;21727;-79
2023/06/18 04:34:14;;;;;;;25.47;16.17;;;;;;;16.61;100.00;100173.91;1493478;86;21498;-80
2023/06/18 04:36:41;;;;;;;21.37;16.53;;;;;;;16.67;100.00;100171.80;1485131;86;22476;-79
2023/06/18 04:39:08;;;;;;;33.13;17.37;;;;;;;16.74;100.00;100175.33;1510643;86;21336;-79
2023/06/18 04:41:36;;;;;;;19.20;15.90;;;;;;;16.82;100.00;100179.75;1504001;86;21949;-79
2023/06/18 04:44:03;;;;;;;20.67;16.63;;;;;;;16.94;100.00;100176.84;1502590;86;21402;-80
2023/06/18 04:46:32;;;;;;;17.67;15.43;;;;;;;17.10;100.00;100185.91;1505067;86;21388;-79
2023/06/18 04:48:59;;;;;;;18.30;15.63;;;;;;;17.25;100.00;100180.96;1487257;86;21409;-80
2023/06/18 04:51:26;;;;;;;17.30;14.50;;;;;;;17.41;100.00;100175.30;1501268;86;21609;-79
2023/06/18 04:53:53;;;;;;;20.67;15.50;;;;;;;17.52;100.00;100178.75;1487230;86;21483;-79
2023/06/18 04:56:21;;;;;;;17.17;14.98;;;;;;;17.61;100.00;100186.09;1490358;86;22402;-79
2023/06/18 04:58:48;;;;;;;18.15;15.38;;;;;;;17.69;100.00;100182.39;1507924;86;21572;-79
2023/06/18 05:01:15;;;;;;;16.55;14.47;;;;;;;17.74;100.00;100185.30;1511607;86;22334;-79
2023/06/18 05:03:44;;;;;;;21.68;15.68;;;;;;;17.87;100.00;100193.42;1503192;86;21461;-79
2023/06/18 05:06:11;;;;;;;15.63;14.03;;;;;;;18.03;100.00;100191.70;1508664;86;21431;-79
2023/06/18 05:08:38;;;;;;;25.48;15.58;;;;;;;18.19;100.00;100193.72;1512258;86;22290;-79
2023/06/18 05:11:05;;;;;;;18.02;13.98;;;;;;;18.34;100.00;100194.34;1504424;86;21447;-79
2023/06/18 05:13:33;;;;;;;13.88;12.55;;;;;;;18.42;100.00;100195.50;1507033;86;21597;-80
2023/06/18 05:16:00;;;;;;;15.78;12.80;;;;;;;18.40;100.00;100196.20;1473475;86;21454;-82
2023/06/18 05:18:27;;;;;;;17.57;12.95;;;;;;;18.35;100.00;100198.67;1511646;86;21536;-82
2023/06/18 05:20:54;;;;;;;16.82;14.13;;;;;;;18.33;100.00;100198.07;1487900;86;21526;-81
2023/06/18 05:23:22;;;;;;;15.08;13.50;;;;;;;18.34;100.00;100209.08;1507439;86;21602;-82
2023/06/18 05:25:49;;;;;;;16.95;15.05;;;;;;;18.31;100.00;100208.16;1509955;86;22356;-82
2023/06/18 05:28:16;;;;;;;17.45;13.78;;;;;;;18.34;100.00;100217.64;1511168;86;21639;-79
2023/06/18 05:30:43;;;;;;;29.32;13.98;;;;;;;18.43;100.00;100210.53;1506863;86;21535;-78
2023/06/18 05:33:11;;;;;;;14.30;12.78;;;;;;;18.58;100.00;100213.54;1511449;86;22480;-78
2023/06/18 05:35:38;;;;;;;14.83;13.10;;;;;;;18.75;100.00;100218.84;1509642;86;21653;-78
2023/06/18 05:38:05;;;;;;;17.85;14.80;;;;;;;18.88;99.42;100221.52;1508299;86;21431;-79
2023/06/18 05:40:33;;;;;;;15.93;14.33;;;;;;;19.01;98.88;100226.56;1513734;86;21491;-77
2023/06/18 05:43:00;;;;;;;16.77;13.50;;;;;;;19.14;98.65;100230.58;1513287;86;21661;-78
2023/06/18 05:45:27;;;;;;;18.48;14.18;;;;;;;19.22;98.68;100237.08;1490390;86;21513;-78
2023/06/18 05:47:54;;;;;;;14.45;12.95;;;;;;;19.26;97.72;100250.89;1505053;86;21432;-78
2023/06/18 05:50:22;;;;;;;14.63;13.22;;;;;;;19.24;96.54;100248.41;1512475;86;21580;-77
2023/06/18 05:52:49;;;;;;;16.20;14.50;;;;;;;19.23;97.44;100246.77;1507687;86;22629;-77
2023/06/18 05:55:16;;;;;;;14.55;13.00;;;;;;;19.14;95.39;100248.84;1509644;86;21505;-80
2023/06/18 05:57:44;;;;;;;19.15;14.33;;;;;;;19.13;96.07;100252.56;1506974;86;21374;-80
2023/06/18 06:00:12;;;;;;;18.00;13.65;;;;;;;19.15;96.74;100255.02;1510559;86;21535;-81
2023/06/18 06:02:40;;;;;;;16.82;14.35;;;;;;;19.29;97.49;100253.97;1491505;86;21550;-81
2023/06/18 06:05:08;;;;;;;14.35;12.85;;;;;;;19.44;97.05;100256.42;1514583;86;22476;-80
2023/06/18 06:07:35;;;;;;;14.65;13.15;;;;;;;19.59;96.93;100252.14;1513056;86;21521;-81
2023/06/18 06:10:03;;;;;;;18.12;13.45;;;;;;;19.79;97.06;100248.09;1502996;86;21758;-81
2023/06/18 06:12:31;;;;;;;17.42;12.82;;;;;;;19.81;94.74;100249.53;1511113;86;21587;-79
2023/06/18 06:14:58;;;;;;;14.20;12.15;;;;;;;19.97;94.96;100255.48;1502929;86;21550;-79
2023/06/18 06:17:25;;;;;;;15.43;13.25;;;;;;;20.05;93.26;100255.20;1501542;86;21432;-79
2023/06/18 06:19:53;;;;;;;16.42;12.40;;;;;;;20.07;92.80;100254.48;1513538;86;22437;-78
2023/06/18 06:22:20;;;;;;;13.98;12.40;;;;;;;20.22;93.64;100255.02;1494582;86;21639;-78
2023/06/18 06:24:47;;;;;;;14.33;12.85;;;;;;;20.34;92.64;100250.30;1512694;86;22416;-78
2023/06/18 06:27:14;;;;;;;13.65;12.18;;;;;;;20.48;93.07;100243.80;1504805;86;22063;-77
2023/06/18 06:29:41;;;;;;;15.35;12.40;;;;;;;20.60;91.40;100249.34;1513069;86;21440;-77
2023/06/18 06:32:09;;;;;;;12.65;11.15;;;;;;;20.77;92.01;100252.32;1507347;86;21583;-78
2023/06/18 06:34:36;;;;;;;15.78;11.57;;;;;;;20.93;91.75;100251.78;1508199;86;22394;-78
2023/06/18 06:37:04;;;;;;;15.38;11.68;;;;;;;21.06;91.02;100251.69;1512863;86;21417;-78
2023/06/18 06:39:31;;;;;;;13.45;10.78;;;;;;;21.23;91.05;100251.91;1512765;86;21602;-78
2023/06/18 06:41:58;;;;;;;16.60;11.83;;;;;;;21.35;89.18;100256.07;1506124;86;21380;-77
2023/06/18 06:44:25;;;;;;;14.83;10.50;;;;;;;21.49;89.66;100257.61;1512772;86;21396;-77
2023/06/18 06:46:53;;;;;;;13.30;11.10;;;;;;;21.62;88.33;100253.41;1507863;86;21521;-77
2023/06/18 06:49:21;;;;;;;21.15;10.58;;;;;;;21.65;84.21;100262.09;1508832;86;22483;-79
2023/06/18 06:51:49;;;;;;;14.38;11.00;;;;;;;21.73;84.50;100257.77;1502215;86;22930;-78
2023/06/18 06:54:17;;;;;;;12.55;11.28;;;;;;;21.83;85.97;100264.77;1507178;86;21498;-80
2023/06/18 06:56:44;;;;;;;19.25;10.55;;;;;;;21.95;85.49;100256.75;1483925;86;21432;-79
2023/06/18 06:59:12;;;;;;;13.60;10.63;;;;;;;22.12;85.75;100251.56;1500679;86;21454;-79
2023/06/18 07:01:39;;;;;;;14.93;10.23;;;;;;;22.24;84.85;100256.50;1513776;86;21690;-78
2023/06/18 07:04:06;;;;;;;14.25;9.58;;;;;;;22.20;76.31;100253.45;1472897;86;21491;-79
2023/06/18 07:06:33;;;;;;;10.63;9.13;;;;;;;22.22;81.21;100258.63;1503869;86;22044;-80
2023/06/18 07:09:03;;;;;;;12.07;9.00;;;;;;;22.23;79.52;100257.03;1513067;86;22483;-77
2023/06/18 07:11:30;;;;;;;10.25;8.00;;;;;;;22.21;79.12;100252.91;1506891;86;21528;-78
2023/06/18 07:13:57;;;;;;;12.30;8.98;;;;;;;22.24;79.20;100256.00;1511017;86;21497;-78
2023/06/18 07:16:24;;;;;;;8.60;7.70;;;;;;;22.34;77.57;100252.74;1498081;86;22364;-77
2023/06/18 07:18:51;;;;;;;10.18;8.10;;;;;;;22.34;76.01;100253.27;1505531;86;21447;-79
2023/06/18 07:21:18;;;;;;;15.85;8.13;;;;;;;22.41;76.38;100250.79;1509558;86;22386;-78
2023/06/18 07:23:46;;;;;;;11.53;7.72;;;;;;;22.39;75.51;100253.41;1491620;86;21580;-78
2023/06/18 07:26:13;;;;;;;11.22;7.95;;;;;;;22.47;75.54;100249.87;1512328;86;21469;-78
2023/06/18 07:28:40;;;;;;;10.03;7.70;;;;;;;22.50;76.39;100252.10;1503171;86;21424;-78
2023/06/18 07:31:08;;;;;;;9.70;8.55;;;;;;;22.58;75.41;100256.85;1486494;86;21610;-79
2023/06/18 07:33:35;;;;;;;11.20;8.73;;;;;;;22.63;76.53;100256.45;1509393;86;21521;-77
2023/06/18 07:36:02;;;;;;;8.50;6.95;;;;;;;22.76;77.12;100248.70;1512442;86;21632;-79
2023/06/18 07:38:29;;;;;;;7.35;6.53;;;;;;;22.79;74.65;100257.67;1501191;86;21519;-79
2023/06/18 07:40:56;;;;;;;9.45;7.87;;;;;;;22.88;74.43;100267.07;1506470;86;22232;-78
2023/06/18 07:43:24;;;;;;;8.28;7.15;;;;;;;23.09;75.71;100260.84;1503881;86;21535;-79
2023/06/18 07:45:51;;;;;;;7.90;6.40;;;;;;;23.30;74.88;100264.29;1509291;86;21418;-78
2023/06/18 07:48:18;;;;;;;7.50;6.25;;;;;;;23.41;70.83;100260.77;1507065;86;22430;-80
2023/06/18 07:50:45;;;;;;;10.48;6.10;;;;;;;23.52;72.95;100258.30;1491242;86;22934;-79
2023/06/18 07:53:12;;;;;;;7.40;6.42;;;;;;;23.63;70.90;100262.87;1510281;86;21647;-80
2023/06/18 07:55:40;;;;;;;7.72;5.37;;;;;;;23.62;71.01;100261.20;1509512;86;21550;-79
2023/06/18 07:58:07;;;;;;;6.83;6.00;;;;;;;23.63;69.09;100256.93;1512949;86;21513;-79
2023/06/18 08:00:34;;;;;;;8.40;6.20;;;;;;;23.53;67.65;100259.94;1487615;86;21489;-79
2023/06/18 08:03:01;;;;;;;14.18;6.03;;;;;;;23.63;68.61;100260.16;1511699;86;22378;-80
2023/06/18 08:05:29;;;;;;;7.55;5.75;;;;;;;23.69;69.80;100264.61;1509870;86;21931;-78
2023/06/18 08:07:57;;;;;;;10.55;6.25;;;;;;;23.82;69.75;100261.69;1513946;86;21662;-80
2023/06/18 08:10:24;;;;;;;6.12;4.80;;;;;;;23.82;68.27;100256.79;1507872;86;21439;-80
2023/06/18 08:12:51;;;;;;;5.50;5.00;;;;;;;23.88;68.25;100266.67;1484832;86;21565;-80
2023/06/18 08:15:18;;;;;;;6.05;5.30;;;;;;;23.92;66.42;100261.06;1509767;86;21439;-80
2023/06/18 08:17:45;;;;;;;8.23;5.97;;;;;;;24.04;67.16;100265.08;1505155;86;21609;-79
2023/06/18 08:20:13;;;;;;;16.10;7.42;;;;;;;23.89;58.80;100261.55;1509929;86;21535;-77
2023/06/18 08:22:40;;;;;;;7.08;5.40;;;;;;;24.01;61.13;100268.27;1502079;86;21572;-77
2023/06/18 08:25:07;;;;;;;7.12;5.62;;;;;;;24.18;61.57;100262.38;1517567;86;21462;-78
2023/06/18 08:27:35;;;;;;;7.22;5.62;;;;;;;24.35;60.60;100258.91;1505858;86;22356;-77
2023/06/18 08:30:07;;;;;;;6.97;5.92;;;;;;;24.46;60.30;100258.88;1515609;86;21594;-78
2023/06/18 08:32:34;;;;;;;6.58;5.97;;;;;;;24.62;60.88;100259.95;1503876;86;21521;-78
2023/06/18 08:35:02;;;;;;;6.97;5.67;;;;;;;24.78;60.82;100248.87;1513540;86;21624;-78
2023/06/18 08:37:29;;;;;;;7.22;6.50;;;;;;;25.04;61.27;100253.33;1511128;86;21349;-79
2023/06/18 08:39:56;;;;;;;6.45;5.90;;;;;;;25.27;61.06;100253.70;1511510;86;21367;-80
2023/06/18 08:42:23;;;;;;;7.45;6.75;;;;;;;25.38;59.46;100251.43;1508908;86;22408;-80
2023/06/18 08:44:53;;;;;;;7.70;6.30;;;;;;;25.40;58.95;100250.63;1505274;86;21477;-79
2023/06/18 08:47:21;;;;;;;8.88;6.75;;;;;;;25.29;58.55;100253.75;1506421;86;21454;-78
2023/06/18 08:49:51;;;;;;;8.98;5.70;;;;;;;25.42;59.35;100252.02;1509292;86;21503;-78
2023/06/18 08:52:22;;;;;;;7.10;6.30;;;;;;;25.58;59.44;100250.34;1503410;86;21582;-79
2023/06/18 08:54:54;;;;;;;8.00;5.87;;;;;;;25.79;59.24;100254.67;1497748;86;21446;-78
2023/06/18 08:57:42;;;;;;;6.45;5.85;;;;;;;25.86;57.64;100252.60;1503450;86;21441;-78
2023/06/18 09:00:10;;;;;;;8.33;5.45;;;;;;;25.80;57.16;100253.58;1503386;86;21550;-78
2023/06/18 09:02:38;;;;;;;7.83;5.95;;;;;;;25.89;56.46;100260.23;1506928;86;21418;-79
2023/06/18 09:05:07;;;;;;;9.28;6.60;;;;;;;25.77;57.01;100263.58;1499466;86;22251;-78
2023/06/18 09:07:35;;;;;;;7.70;6.85;;;;;;;25.89;58.09;100265.65;1513671;86;22379;-78
2023/06/18 09:10:05;;;;;;;6.92;6.22;;;;;;;25.78;56.02;100263.34;1501917;86;21625;-78
2023/06/18 09:12:33;;;;;;;6.40;5.75;;;;;;;25.86;56.58;100266.16;1514262;86;21989;-80
2023/06/18 09:15:00;;;;;;;7.45;6.65;;;;;;;26.09;56.69;100263.17;1507198;86;22246;-80
2023/06/18 09:17:27;;;;;;;22.70;6.30;;;;;;;26.39;56.52;100252.38;1483107;86;21514;-79
2023/06/18 09:19:56;;;;;;;8.48;6.35;;;;;;;26.57;55.42;100245.78;1503619;86;22238;-80
2023/06/18 09:22:24;;;;;;;12.43;6.05;;;;;;;26.68;55.07;100247.52;1516947;86;21388;-81
2023/06/18 09:24:58;;;;;;;7.03;6.15;;;;;;;26.87;54.97;100243.03;1509001;86;22402;-81
2023/06/18 09:27:33;;;;;;;9.08;6.20;;;;;;;26.69;46.36;100249.68;1506927;86;21573;-80
2023/06/18 09:30:03;;;;;;;7.85;5.67;;;;;;;26.72;47.90;100247.27;1508786;86;21933;-81
2023/06/18 09:32:31;;;;;;;7.03;6.33;;;;;;;26.92;48.01;100239.81;1575016;86;21403;-81
2023/06/18 09:35:04;;;;;;;7.78;6.67;;;;;;;27.08;48.71;100247.55;1429506;86;21337;-81
2023/06/18 09:37:32;;;;;;;8.55;5.83;;;;;;;27.20;47.60;100245.48;1588617;86;22291;-82
2023/06/18 09:40:10;;;;;;;6.00;5.40;;;;;;;27.34;47.94;100243.66;1428590;86;21371;-81
2023/06/18 09:42:38;;;;;;;6.70;6.00;;;;;;;27.51;47.34;100239.41;1597251;86;21285;-81
2023/06/18 09:45:06;;;;;;;9.08;6.45;;;;;;;27.54;46.14;100236.97;1429514;86;22284;-82
2023/06/18 09:47:33;;;;;;;6.80;6.20;;;;;;;27.62;46.44;100236.98;1428281;86;22114;-81
2023/06/18 09:50:03;;;;;;;9.40;5.60;;;;;;;27.71;46.68;100232.70;1429853;86;21227;-81
2023/06/18 09:52:30;;;;;;;8.05;5.75;;;;;;;27.59;44.94;100226.65;1433444;86;21448;-81
2023/06/18 09:54:57;;;;;;;9.10;6.03;;;;;;;27.53;44.79;100230.43;1429942;86;21315;-81
2023/06/18 09:57:24;;;;;;;6.65;5.92;;;;;;;27.50;45.29;100230.95;1429907;86;21418;-82
2023/06/18 10:00:12;;;;;;;6.80;6.10;;;;;;;27.65;45.54;100227.78;1435944;86;22173;-82
2023/06/18 10:02:39;;;;;;;10.15;6.67;;;;;;;27.82;45.19;100224.89;1541625;86;21521;-82
2023/06/18 10:05:07;;;;;;;8.30;7.08;;;;;;;27.84;43.22;100218.62;1507457;86;21804;-81
2023/06/18 10:07:36;;;;;;;7.22;6.50;;;;;;;27.93;43.92;100219.47;1507442;86;21388;-81
2023/06/18 10:10:08;;;;;;;;;;;;;;;27.96;42.66;100217.57;1510772;86;21631;-81
2023/06/18 10:12:36;;;;;;;8.25;7.00;;;;;;;28.11;43.11;100213.55;1481015;88;20357;-82
2023/06/18 10:15:09;;;;;;;9.80;6.22;;;;;;;28.26;43.42;100217.64;1479895;88;21435;-80
2023/06/18 10:17:40;;;;;;;11.00;6.85;;;;;;;28.38;43.48;100217.93;1477689;88;21426;-81
2023/06/18 10:20:09;;;;;;;7.05;5.50;;;;;;;28.57;43.19;100213.63;1475151;88;21425;-81
2023/06/18 10:22:54;;;;;;;10.13;6.25;;;;;;;28.60;42.26;100213.08;1477807;88;21425;-82
2023/06/18 10:25:21;;;;;;;6.35;5.75;;;;;;;28.55;42.72;100210.34;1475789;88;21580;-80
2023/06/18 10:27:49;;;;;;;6.83;6.20;;;;;;;28.12;42.98;100201.56;1479585;88;21322;-80
2023/06/18 10:30:18;;;;;;;8.68;7.08;;;;;;;27.70;43.10;100205.77;1481525;88;21345;-84
2023/06/18 10:32:48;;;;;;;7.42;6.35;;;;;;;27.17;42.71;100203.09;1483775;88;22284;-81
2023/06/18 10:35:17;;;;;;;6.75;5.92;;;;;;;26.65;43.73;100205.15;1479722;88;21522;-82
2023/06/18 10:37:45;;;;;;;7.93;7.23;;;;;;;26.44;44.67;100203.59;1507251;86;21992;-81
2023/06/18 10:40:13;;;;;;;9.75;6.37;;;;;;;26.58;44.69;100201.82;1501118;86;21417;-81
2023/06/18 10:42:40;;;;;;;7.80;6.70;;;;;;;26.70;44.97;100195.15;1506167;86;21389;-81
2023/06/18 10:45:15;;;;;;;28.95;7.12;;;;;;;27.06;44.63;100195.92;1503328;86;21381;-80
2023/06/18 10:47:44;;;;;;;6.85;5.58;;;;;;;27.39;43.82;100192.88;1426801;86;21255;-81
2023/06/18 10:50:17;;;;;;;10.53;6.70;;;;;;;27.76;43.98;100206.87;1428489;86;21403;-80
2023/06/18 10:52:50;;;;;;;7.75;6.87;;;;;;;28.05;43.94;100195.55;1550621;86;22275;-81
2023/06/18 10:55:26;;;;;;;7.60;6.80;;;;;;;28.35;43.52;100198.33;1507516;86;21403;-81
2023/06/18 10:58:01;;;;;;;7.10;6.45;;;;;;;28.63;43.46;100193.47;1512132;86;21506;-80
2023/06/18 11:00:46;;;;;;;10.13;6.47;;;;;;;28.91;42.70;100189.87;1515184;86;21513;-81
2023/06/18 11:03:16;;;;;;;8.95;7.00;;;;;;;28.54;41.00;100200.01;1511315;86;21395;-80
2023/06/18 11:05:51;;;;;;;7.42;6.70;;;;;;;28.63;41.76;100196.19;1490034;86;21440;-80
2023/06/18 11:08:28;;;;;;;7.12;6.35;;;;;;;28.63;39.33;100193.98;1504116;86;21344;-80
2023/06/18 11:11:06;;;;;;;9.05;6.47;;;;;;;28.42;39.64;100195.91;1507017;85;21679;-81
2023/06/18 11:13:38;;;;;;;9.15;7.20;;;;;;;28.58;41.14;100190.74;1424915;87;22283;-82
2023/06/18 11:16:11;;;;;;;8.18;6.17;;;;;;;28.83;40.32;100184.98;1427522;86;21234;-82
2023/06/18 11:18:43;;;;;;;7.55;6.60;;;;;;;28.86;40.46;100186.64;1597843;86;22022;-81